createdAt,value
2023-04-18T00:01:32.282Z,34.90
2023-04-18T00:03:59.112Z,39.13
2023-04-18T00:06:26.005Z,38.15
2023-04-18T00:08:52.660Z,39.60
2023-04-18T00:11:19.248Z,36.63
2023-04-18T00:13:47.537Z,36.45
2023-04-18T00:16:14.969Z,40.30
2023-04-18T00:18:41.822Z,38.58
2023-04-18T00:21:08.911Z,41.17
2023-04-18T00:23:36.079Z,36.72
2023-04-18T00:26:03.119Z,37.58
2023-04-18T00:28:29.874Z,37.38
2023-04-18T00:30:56.619Z,38.15
2023-04-18T00:33:23.366Z,35.43
2023-04-18T00:35:49.897Z,40.70
2023-04-18T00:38:16.522Z,37.53
2023-04-18T00:40:43.162Z,38.35
2023-04-18T00:43:09.758Z,36.97
2023-04-18T00:45:37.085Z,45.33
2023-04-18T00:48:03.815Z,36.08
2023-04-18T00:50:31.434Z,42.05
2023-04-18T00:52:58.893Z,39.20
2023-04-18T00:55:25.787Z,45.20
2023-04-18T00:57:52.716Z,39.03
2023-04-18T01:00:19.514Z,34.65
2023-04-18T01:02:47.407Z,45.17
2023-04-18T01:05:14.100Z,37.72
2023-04-18T01:07:41.690Z,40.15
2023-04-18T01:10:10.725Z,41.80
2023-04-18T01:12:37.970Z,37.85
2023-04-18T01:15:06.230Z,42.17
2023-04-18T01:17:34.827Z,37.38
2023-04-18T01:20:02.137Z,40.05
2023-04-18T01:22:30.093Z,45.67
2023-04-18T01:24:57.205Z,37.33
2023-04-18T01:27:23.848Z,38.78
2023-04-18T01:29:50.686Z,39.70
2023-04-18T01:32:20.151Z,42.13
2023-04-18T01:34:46.742Z,46.50
2023-04-18T01:37:13.341Z,44.78
2023-04-18T01:39:40.098Z,46.55
2023-04-18T01:42:06.703Z,49.75
2023-04-18T01:44:33.267Z,44.28
2023-04-18T01:46:59.858Z,59.47
2023-04-18T01:49:26.609Z,53.40
2023-04-18T01:51:53.158Z,50.55
2023-04-18T01:54:19.722Z,56.00
2023-04-18T01:56:46.362Z,53.72
2023-04-18T01:59:12.880Z,53.50
2023-04-18T02:01:39.507Z,61.58
2023-04-18T02:04:06.106Z,65.05
2023-04-18T02:06:32.852Z,52.33
2023-04-18T02:08:59.431Z,52.47
2023-04-18T02:11:26.319Z,44.27
2023-04-18T02:13:52.889Z,53.95
2023-04-18T02:16:19.599Z,48.83
2023-04-18T02:18:46.204Z,45.25
2023-04-18T02:21:12.901Z,42.28
2023-04-18T02:23:39.502Z,42.20
2023-04-18T02:26:06.658Z,27.42
2023-04-18T02:28:33.318Z,33.00
2023-04-18T02:31:00.542Z,25.10
2023-04-18T02:33:27.206Z,26.77
2023-04-18T02:35:53.721Z,25.67
2023-04-18T02:38:20.488Z,31.15
2023-04-18T02:40:47.110Z,23.20
2023-04-18T02:43:13.850Z,27.58
2023-04-18T02:45:40.651Z,26.25
2023-04-18T02:48:07.277Z,22.93
2023-04-18T02:50:35.463Z,20.52
2023-04-18T02:53:02.178Z,22.75
2023-04-18T02:55:28.856Z,27.67
2023-04-18T02:57:56.023Z,20.98
2023-04-18T03:00:22.718Z,24.10
2023-04-18T03:02:49.391Z,25.08
2023-04-18T03:05:16.656Z,19.13
2023-04-18T03:07:43.415Z,30.55
2023-04-18T03:10:11.356Z,23.63
2023-04-18T03:12:37.984Z,22.13
2023-04-18T03:15:05.247Z,19.10
2023-04-18T03:17:31.934Z,21.58
2023-04-18T03:19:58.495Z,15.90
2023-04-18T03:22:25.119Z,15.80
2023-04-18T03:24:51.705Z,25.53
2023-04-18T03:27:18.739Z,22.70
2023-04-18T03:29:45.575Z,24.63
2023-04-18T03:32:12.984Z,19.38
2023-04-18T03:34:39.621Z,21.85
2023-04-18T03:37:06.367Z,18.33
2023-04-18T03:39:33.148Z,19.05
2023-04-18T03:41:59.721Z,18.33
2023-04-18T03:44:26.325Z,15.98
2023-04-18T03:46:54.146Z,18.45
2023-04-18T03:49:20.678Z,21.90
2023-04-18T03:51:48.062Z,17.90
2023-04-18T03:54:16.012Z,18.13
2023-04-18T03:56:43.078Z,14.10
2023-04-18T03:59:10.922Z,20.15
2023-04-18T04:01:37.978Z,19.23
2023-04-18T04:04:05.328Z,16.02
2023-04-18T04:06:32.269Z,18.80
2023-04-18T04:08:58.918Z,19.88
2023-04-18T04:11:26.067Z,10.32
2023-04-18T04:13:52.991Z,17.27
2023-04-18T04:16:19.871Z,14.52
2023-04-18T04:18:46.637Z,16.75
2023-04-18T04:21:13.382Z,15.57
2023-04-18T04:23:42.698Z,17.90
2023-04-18T04:26:09.651Z,13.00
2023-04-18T04:28:36.225Z,16.63
2023-04-18T04:31:06.435Z,19.38
2023-04-18T04:33:34.298Z,15.00
2023-04-18T04:36:05.675Z,15.52
2023-04-18T04:38:32.964Z,15.37
2023-04-18T04:40:59.748Z,13.57
2023-04-18T04:43:28.840Z,14.02
2023-04-18T04:45:55.946Z,12.43
2023-04-18T04:48:22.768Z,13.93
2023-04-18T04:50:57.236Z,13.80
2023-04-18T04:53:30.493Z,16.50
2023-04-18T04:55:58.058Z,12.35
2023-04-18T04:58:25.090Z,10.77
2023-04-18T05:00:52.687Z,14.95
2023-04-18T05:03:19.806Z,12.87
2023-04-18T05:05:47.325Z,10.88
2023-04-18T05:08:14.242Z,15.65
2023-04-18T05:10:41.732Z,13.45
2023-04-18T05:13:08.455Z,11.82
2023-04-18T05:15:35.044Z,13.20
2023-04-18T05:18:01.715Z,17.25
2023-04-18T05:20:28.335Z,11.30
2023-04-18T05:22:54.921Z,15.50
2023-04-18T05:25:21.505Z,11.45
2023-04-18T05:27:48.324Z,11.43
2023-04-18T05:30:14.987Z,14.73
2023-04-18T05:32:41.694Z,12.70
2023-04-18T05:35:09.208Z,11.15
2023-04-18T05:37:35.930Z,9.23
2023-04-18T05:40:03.908Z,13.23
2023-04-18T05:42:30.521Z,10.88
2023-04-18T05:44:57.206Z,11.50
2023-04-18T05:47:26.982Z,13.18
2023-04-18T05:49:53.670Z,8.40
2023-04-18T05:52:20.673Z,13.03
2023-04-18T05:54:47.202Z,10.20
2023-04-18T05:57:14.023Z,7.47
2023-04-18T05:59:40.686Z,10.05
2023-04-18T06:02:13.203Z,11.40
2023-04-18T06:04:42.395Z,12.83
2023-04-18T06:07:09.596Z,14.20
2023-04-18T06:09:36.329Z,13.80
2023-04-18T06:12:03.003Z,12.27
2023-04-18T06:14:29.599Z,12.93
2023-04-18T06:16:56.220Z,14.80
2023-04-18T06:19:22.973Z,12.13
2023-04-18T06:21:49.986Z,11.20
2023-04-18T06:24:16.824Z,12.43
2023-04-18T06:26:43.633Z,12.90
2023-04-18T06:29:10.499Z,10.87
2023-04-18T06:31:37.109Z,10.52
2023-04-18T06:34:03.657Z,8.75
2023-04-18T06:36:30.440Z,11.77
2023-04-18T06:38:57.084Z,8.73
2023-04-18T06:41:23.785Z,9.60
2023-04-18T06:44:02.590Z,11.55
2023-04-18T06:46:31.454Z,9.68
2023-04-18T06:48:58.155Z,12.32
2023-04-18T06:51:24.812Z,13.43
2023-04-18T06:53:52.962Z,12.20
2023-04-18T06:56:23.019Z,11.82
2023-04-18T06:58:49.995Z,12.98
2023-04-18T07:01:16.719Z,12.05
2023-04-18T07:03:43.550Z,12.05
2023-04-18T07:06:11.028Z,11.27
2023-04-18T07:08:38.216Z,11.77
2023-04-18T07:11:06.234Z,11.00
2023-04-18T07:13:33.138Z,10.18
2023-04-18T07:16:00.121Z,12.52
2023-04-18T07:18:36.651Z,15.13
2023-04-18T07:21:07.477Z,9.45
2023-04-18T07:23:34.671Z,12.70
2023-04-18T07:26:02.991Z,11.73
2023-04-18T07:28:31.386Z,11.27
2023-04-18T07:30:59.364Z,12.00
2023-04-18T07:33:25.941Z,13.73
2023-04-18T07:35:53.267Z,11.13
2023-04-18T07:38:20.138Z,9.93
2023-04-18T07:40:46.902Z,10.55
2023-04-18T07:43:13.469Z,9.93
2023-04-18T07:45:43.187Z,9.55
2023-04-18T07:48:10.053Z,9.38
2023-04-18T07:50:36.662Z,13.20
2023-04-18T07:53:03.645Z,10.93
2023-04-18T07:55:30.914Z,11.67
2023-04-18T07:57:57.484Z,12.68
2023-04-18T08:00:24.723Z,12.43
2023-04-18T08:02:51.582Z,11.10
2023-04-18T08:05:21.397Z,13.05
2023-04-18T08:07:47.989Z,11.70
2023-04-18T08:10:14.616Z,12.45
2023-04-18T08:12:41.229Z,11.50
2023-04-18T08:15:08.558Z,10.25
2023-04-18T08:17:35.351Z,11.23
2023-04-18T08:20:05.057Z,14.50
2023-04-18T08:22:31.866Z,13.07
2023-04-18T08:25:04.943Z,13.48
2023-04-18T08:27:33.044Z,12.55
2023-04-18T08:29:59.907Z,12.05
2023-04-18T08:32:26.486Z,11.60
2023-04-18T08:34:53.198Z,8.15
2023-04-18T08:37:19.813Z,14.27
2023-04-18T08:39:46.339Z,13.02
2023-04-18T08:42:19.197Z,9.85
2023-04-18T08:44:47.266Z,12.83
2023-04-18T08:47:14.760Z,11.82
2023-04-18T08:49:46.734Z,14.20
2023-04-18T08:52:14.870Z,15.20
2023-04-18T08:54:43.066Z,13.57
2023-04-18T08:57:12.633Z,11.20
2023-04-18T08:59:40.390Z,12.65
2023-04-18T09:02:09.145Z,11.50
2023-04-18T09:04:49.161Z,14.45
2023-04-18T09:07:18.071Z,13.65
2023-04-18T09:09:53.152Z,11.20
2023-04-18T09:12:25.383Z,14.50
2023-04-18T09:14:57.964Z,10.27
2023-04-18T09:17:38.578Z,13.13
2023-04-18T09:20:06.809Z,12.00
2023-04-18T09:22:50.659Z,13.23
2023-04-18T09:25:39.853Z,12.23
2023-04-18T09:28:33.128Z,12.30
2023-04-18T09:31:13.591Z,11.32
2023-04-18T09:33:44.863Z,15.60
2023-04-18T09:36:19.074Z,13.37
2023-04-18T09:38:46.702Z,17.35
2023-04-18T09:41:15.970Z,13.95
2023-04-18T09:43:44.307Z,16.58
2023-04-18T09:46:11.366Z,14.00
2023-04-18T09:48:38.374Z,20.07
2023-04-18T09:51:10.137Z,18.02
2023-04-18T09:53:41.389Z,15.88
2023-04-18T09:56:24.564Z,15.18
2023-04-18T09:58:56.621Z,13.48
2023-04-18T10:01:28.378Z,16.47
2023-04-18T10:03:57.569Z,13.05
2023-04-18T10:06:27.483Z,16.45
2023-04-18T10:08:55.284Z,16.55
2023-04-18T10:11:23.929Z,14.98
2023-04-18T10:13:56.270Z,16.70
2023-04-18T10:16:23.404Z,12.32
2023-04-18T10:18:51.372Z,13.13
2023-04-18T10:21:17.964Z,15.57
2023-04-18T10:23:48.723Z,17.23
2023-04-18T10:26:15.347Z,13.50
2023-04-18T10:28:57.007Z,16.55
2023-04-18T10:31:25.701Z,14.23
2023-04-18T10:36:28.454Z,17.05
2023-04-18T10:39:00.924Z,12.53
2023-04-18T10:41:33.562Z,13.63
2023-04-18T10:44:08.256Z,16.77
2023-04-18T10:46:51.121Z,13.98
2023-04-18T10:49:32.599Z,14.32
2023-04-18T10:52:01.079Z,14.43
2023-04-18T10:55:03.836Z,12.77
2023-04-18T10:57:43.701Z,12.35
2023-04-18T11:00:12.734Z,16.02
2023-04-18T11:02:49.371Z,11.50
2023-04-18T11:05:28.546Z,15.57
2023-04-18T11:07:55.712Z,12.30
2023-04-18T11:10:24.580Z,15.20
2023-04-18T11:12:52.439Z,13.55
2023-04-18T11:15:24.086Z,13.23
2023-04-18T11:17:59.285Z,11.07
2023-04-18T11:20:26.662Z,11.80
2023-04-18T11:22:57.776Z,10.68
2023-04-18T11:25:32.610Z,15.98
2023-04-18T11:28:01.538Z,12.82
2023-04-18T11:30:35.787Z,13.83
2023-04-18T11:33:08.675Z,15.25
2023-04-18T11:35:38.811Z,12.50
2023-04-18T11:38:06.682Z,11.07
2023-04-18T11:40:33.376Z,15.00
2023-04-18T11:43:05.087Z,12.57
2023-04-18T11:45:31.782Z,13.70
2023-04-18T11:47:59.862Z,14.73
2023-04-18T11:50:27.370Z,11.73
2023-04-18T11:52:54.833Z,12.68
2023-04-18T11:55:24.766Z,11.50
2023-04-18T11:57:58.787Z,11.60
2023-04-18T12:00:37.768Z,11.90
2023-04-18T12:03:15.840Z,11.15
2023-04-18T12:05:43.194Z,12.38
2023-04-18T12:08:13.516Z,12.37
2023-04-18T12:10:50.914Z,11.85
2023-04-18T12:13:18.895Z,13.52
2023-04-18T12:15:46.761Z,14.25
2023-04-18T12:18:15.368Z,13.30
2023-04-18T12:20:47.427Z,12.40
2023-04-18T12:23:35.623Z,10.30
2023-04-18T12:26:03.962Z,13.27
2023-04-18T12:28:30.951Z,13.02
2023-04-18T12:30:57.909Z,12.02
2023-04-18T12:33:24.992Z,9.50
2023-04-18T12:35:52.871Z,14.02
2023-04-18T12:38:23.631Z,12.30
2023-04-18T12:40:51.731Z,11.65
2023-04-18T12:43:19.079Z,9.23
2023-04-18T12:45:46.833Z,13.77
2023-04-18T12:48:13.583Z,10.98
2023-04-18T12:50:40.203Z,11.20
2023-04-18T12:53:06.964Z,10.30
2023-04-18T12:55:33.581Z,9.52
2023-04-18T12:58:00.801Z,8.87
2023-04-18T13:00:29.886Z,10.40
2023-04-18T13:02:57.328Z,10.23
2023-04-18T13:05:29.880Z,10.00
2023-04-18T13:08:15.139Z,12.27
2023-04-18T13:10:43.400Z,9.20
2023-04-18T13:13:09.996Z,12.00
2023-04-18T13:15:36.643Z,9.20
2023-04-18T13:18:06.175Z,8.90
2023-04-18T13:20:34.355Z,8.68
2023-04-18T13:23:02.683Z,10.00
2023-04-18T13:25:29.355Z,8.77
2023-04-18T13:27:57.482Z,9.15
2023-04-18T13:30:24.083Z,9.95
2023-04-18T13:32:50.810Z,8.57
2023-04-18T13:35:17.470Z,7.47
2023-04-18T13:37:44.029Z,6.93
2023-04-18T13:40:11.206Z,7.40
2023-04-18T13:42:38.922Z,7.70
2023-04-18T13:45:06.120Z,7.30
2023-04-18T13:47:32.747Z,8.87
2023-04-18T13:49:59.465Z,8.43
2023-04-18T13:52:26.322Z,11.40
2023-04-18T13:54:53.011Z,8.50
2023-04-18T13:57:19.886Z,8.98
2023-04-18T13:59:47.027Z,10.43
2023-04-18T14:02:13.966Z,9.05
2023-04-18T14:04:40.989Z,9.38
2023-04-18T14:07:08.150Z,8.05
2023-04-18T14:09:35.089Z,13.75
2023-04-18T14:12:02.174Z,10.00
2023-04-18T14:14:29.234Z,10.73
2023-04-18T14:16:55.857Z,10.15
2023-04-18T14:19:22.628Z,12.23
2023-04-18T14:21:49.330Z,10.32
2023-04-18T14:24:15.908Z,10.97
2023-04-18T14:26:42.579Z,13.98
2023-04-18T14:29:09.117Z,9.55
2023-04-18T14:31:35.890Z,10.93
2023-04-18T14:34:02.782Z,11.85
2023-04-18T14:36:29.354Z,8.83
2023-04-18T14:38:56.139Z,10.40
2023-04-18T14:41:22.782Z,10.70
2023-04-18T14:43:49.355Z,10.30
2023-04-18T14:46:19.515Z,14.88
2023-04-18T14:48:48.946Z,11.30
2023-04-18T14:51:16.889Z,10.50
2023-04-18T14:53:44.630Z,10.27
2023-04-18T14:56:11.467Z,10.68
2023-04-18T14:58:38.099Z,11.55
2023-04-18T15:01:05.839Z,11.07
2023-04-18T15:03:32.743Z,12.23
2023-04-18T15:05:59.628Z,11.13
2023-04-18T15:08:26.467Z,12.25
2023-04-18T15:10:53.270Z,10.55
2023-04-18T15:13:20.231Z,11.50
2023-04-18T15:15:57.382Z,13.52
2023-04-18T15:18:23.956Z,14.60
2023-04-18T15:20:51.627Z,12.80
2023-04-18T15:23:18.315Z,12.73
2023-04-18T15:25:45.664Z,13.63
2023-04-18T15:28:16.354Z,14.00
2023-04-18T15:30:43.161Z,12.05
2023-04-18T15:33:11.508Z,15.73
2023-04-18T15:35:38.247Z,11.35
2023-04-18T15:38:05.567Z,16.30
2023-04-18T15:40:33.224Z,12.50
2023-04-18T15:42:59.991Z,15.55
2023-04-18T15:45:26.529Z,11.38
2023-04-18T15:47:53.453Z,11.63
2023-04-18T15:50:20.138Z,14.70
2023-04-18T15:52:46.774Z,14.27
2023-04-18T15:55:13.734Z,14.75
2023-04-18T15:57:41.603Z,12.07
2023-04-18T16:00:15.996Z,15.32
2023-04-18T16:02:44.117Z,15.57
2023-04-18T16:05:12.418Z,14.45
2023-04-18T16:07:40.379Z,18.05
2023-04-18T16:10:10.687Z,16.50
2023-04-18T16:12:39.006Z,14.23
2023-04-18T16:15:08.717Z,15.70
2023-04-18T16:17:36.604Z,16.02
2023-04-18T16:20:03.740Z,15.02
2023-04-18T16:22:30.351Z,16.27
2023-04-18T16:24:56.933Z,15.75
2023-04-18T16:27:23.734Z,17.00
2023-04-18T16:29:50.446Z,17.92
2023-04-18T16:32:17.189Z,21.50
2023-04-18T16:34:43.822Z,16.58
2023-04-18T16:37:10.687Z,18.38
2023-04-18T16:39:37.522Z,18.93
2023-04-18T16:42:04.571Z,17.67
2023-04-18T16:44:31.422Z,18.20
2023-04-18T16:46:58.092Z,18.15
2023-04-18T16:49:25.329Z,16.52
2023-04-18T16:51:52.052Z,18.57
2023-04-18T16:54:18.790Z,17.63
2023-04-18T16:56:45.559Z,19.15
2023-04-18T16:59:12.197Z,13.13
2023-04-18T17:01:38.865Z,19.67
2023-04-18T17:04:05.783Z,18.10
2023-04-18T17:06:32.788Z,16.00
2023-04-18T17:08:59.488Z,15.13
2023-04-18T17:11:26.589Z,16.92
2023-04-18T17:13:53.362Z,17.75
2023-04-18T17:16:20.123Z,17.00
2023-04-18T17:18:47.017Z,17.85
2023-04-18T17:21:13.624Z,16.00
2023-04-18T17:23:42.445Z,18.40
2023-04-18T17:26:10.036Z,18.27
2023-04-18T17:28:37.190Z,18.63
2023-04-18T17:31:04.278Z,18.63
2023-04-18T17:33:31.364Z,20.05
2023-04-18T17:35:58.340Z,16.35
2023-04-18T17:38:25.108Z,20.58
2023-04-18T17:40:59.954Z,20.33
2023-04-18T17:43:26.695Z,16.02
2023-04-18T17:45:56.549Z,21.85
2023-04-18T17:48:23.136Z,18.75
2023-04-18T17:50:49.696Z,19.00
2023-04-18T17:53:17.573Z,16.23
2023-04-18T17:55:45.514Z,21.67
2023-04-18T17:58:12.267Z,17.35
2023-04-18T18:00:38.846Z,19.75
2023-04-18T18:03:08.459Z,18.63
2023-04-18T18:05:35.193Z,18.07
2023-04-18T18:08:01.834Z,19.35
2023-04-18T18:10:28.839Z,20.45
2023-04-18T18:12:55.365Z,21.17
2023-04-18T18:15:22.004Z,19.92
2023-04-18T18:17:49.943Z,17.73
2023-04-18T18:20:17.437Z,18.70
2023-04-18T18:22:44.635Z,16.98
2023-04-18T18:25:11.223Z,19.38
2023-04-18T18:27:38.023Z,19.67
2023-04-18T18:30:05.568Z,20.20
2023-04-18T18:32:32.253Z,19.25
2023-04-18T18:34:58.963Z,18.45
2023-04-18T18:37:26.774Z,21.05
2023-04-18T18:39:56.537Z,19.38
2023-04-18T18:42:23.138Z,20.97
2023-04-18T18:44:49.695Z,20.02
2023-04-18T18:47:17.826Z,16.38
2023-04-18T18:49:44.708Z,20.80
2023-04-18T18:52:11.419Z,21.02
2023-04-18T18:54:37.976Z,21.23
2023-04-18T18:57:04.710Z,24.40
2023-04-18T18:59:31.659Z,21.75
2023-04-18T19:01:58.325Z,19.50
2023-04-18T19:04:25.092Z,20.58
2023-04-18T19:06:51.860Z,18.13
2023-04-18T19:09:18.802Z,20.02
2023-04-18T19:11:45.394Z,20.75
2023-04-18T19:14:11.929Z,22.17
2023-04-18T19:16:38.488Z,20.60
2023-04-18T19:19:05.308Z,22.40
2023-04-18T19:21:32.032Z,20.23
2023-04-18T19:23:58.565Z,21.10
2023-04-18T19:26:25.119Z,20.52
2023-04-18T19:28:51.857Z,21.20
2023-04-18T19:31:19.004Z,18.70
2023-04-18T19:33:46.237Z,20.50
2023-04-18T19:36:12.938Z,20.40
2023-04-18T19:38:39.656Z,18.73
2023-04-18T19:41:06.326Z,19.60
2023-04-18T19:43:33.182Z,19.07
2023-04-18T19:45:59.758Z,21.58
2023-04-18T19:48:26.362Z,20.67
2023-04-18T19:50:53.020Z,19.65
2023-04-18T19:53:20.463Z,20.15
2023-04-18T19:55:47.166Z,17.43
2023-04-18T19:58:34.601Z,18.45
2023-04-18T20:01:01.700Z,16.00
2023-04-18T20:03:28.536Z,19.42
2023-04-18T20:05:55.587Z,19.92
2023-04-18T20:08:22.147Z,17.97
2023-04-18T20:10:48.817Z,20.08
2023-04-18T20:13:15.719Z,18.13
2023-04-18T20:15:42.468Z,16.52
2023-04-18T20:18:09.074Z,18.00
2023-04-18T20:20:35.839Z,18.87
2023-04-18T20:23:03.375Z,17.90
2023-04-18T20:25:29.917Z,20.15
2023-04-18T20:27:56.646Z,19.52
2023-04-18T20:30:23.685Z,20.23
2023-04-18T20:32:50.456Z,19.67
2023-04-18T20:35:17.371Z,21.27
2023-04-18T20:37:44.691Z,21.95
2023-04-18T20:40:11.682Z,17.90
2023-04-18T20:42:39.138Z,17.05
2023-04-18T20:45:06.723Z,18.73
2023-04-18T20:47:34.156Z,17.98
2023-04-18T20:50:00.879Z,20.48
2023-04-18T20:52:27.557Z,20.42
2023-04-18T20:54:54.090Z,16.73
2023-04-18T20:57:20.867Z,17.37
2023-04-18T20:59:47.851Z,19.00
2023-04-18T21:02:14.544Z,19.70
2023-04-18T21:04:41.637Z,17.40
2023-04-18T21:07:08.372Z,19.58
2023-04-18T21:09:37.049Z,18.03
2023-04-18T21:12:04.215Z,21.52
2023-04-18T21:14:30.792Z,18.60
2023-04-18T21:16:58.079Z,18.27
2023-04-18T21:19:24.963Z,16.25
2023-04-18T21:21:52.886Z,18.97
2023-04-18T21:24:19.628Z,20.95
2023-04-18T21:26:46.163Z,20.65
2023-04-18T21:29:12.793Z,18.77
2023-04-18T21:31:39.445Z,15.98
2023-04-18T21:34:06.228Z,17.80
2023-04-18T21:36:32.952Z,20.95
2023-04-18T21:39:01.309Z,18.05
2023-04-18T21:41:28.173Z,20.10
2023-04-18T21:43:54.736Z,17.92
2023-04-18T21:46:21.634Z,17.43
2023-04-18T21:48:48.737Z,16.50
2023-04-18T21:51:16.600Z,18.55
2023-04-18T21:53:43.820Z,18.38
2023-04-18T21:56:10.988Z,22.17
2023-04-18T21:58:37.998Z,18.67
2023-04-18T22:01:05.030Z,19.67
2023-04-18T22:03:34.109Z,17.48
2023-04-18T22:06:01.558Z,15.38
2023-04-18T22:08:28.356Z,19.10
2023-04-18T22:10:57.766Z,18.13
2023-04-18T22:13:26.044Z,19.48
2023-04-18T22:15:52.692Z,19.50
2023-04-18T22:18:19.416Z,16.42
2023-04-18T22:20:46.947Z,20.25
2023-04-18T22:23:14.160Z,17.17
2023-04-18T22:25:41.012Z,20.10
2023-04-18T22:28:07.731Z,18.20
2023-04-18T22:30:34.799Z,15.57
2023-04-18T22:33:01.541Z,17.13
2023-04-18T22:35:28.251Z,16.67
2023-04-18T22:37:56.069Z,16.98
2023-04-18T22:40:22.878Z,17.73
2023-04-18T22:42:52.040Z,17.77
2023-04-18T22:45:19.262Z,15.18
2023-04-18T22:47:46.841Z,15.73
2023-04-18T22:50:14.534Z,18.02
2023-04-18T22:52:41.429Z,19.23
2023-04-18T22:55:08.957Z,17.02
2023-04-18T22:57:35.707Z,16.35
2023-04-18T23:00:02.591Z,17.70
2023-04-18T23:02:29.319Z,16.90
2023-04-18T23:04:59.162Z,16.90
2023-04-18T23:07:25.823Z,20.40
2023-04-18T23:09:52.387Z,16.88
2023-04-18T23:12:18.946Z,19.90
2023-04-18T23:14:45.863Z,18.63
2023-04-18T23:17:12.437Z,18.67
2023-04-18T23:19:39.500Z,18.38
2023-04-18T23:22:06.097Z,19.15
2023-04-18T23:24:32.669Z,20.53
2023-04-18T23:26:59.339Z,19.17
2023-04-18T23:29:25.869Z,19.65
2023-04-18T23:31:52.501Z,19.23
2023-04-18T23:34:19.161Z,17.45
2023-04-18T23:36:45.804Z,18.67
2023-04-18T23:39:12.427Z,19.23
2023-04-18T23:41:39.022Z,16.25
2023-04-18T23:44:05.924Z,18.33
2023-04-18T23:46:33.796Z,18.38
2023-04-18T23:49:02.409Z,19.33
2023-04-18T23:51:29.068Z,16.92
2023-04-18T23:53:55.663Z,19.98
2023-04-18T23:56:23.297Z,19.33
2023-04-18T23:58:50.180Z,19.42
